Time;durP1;ratioP1;P1;durP2;ratioP2;P2;SDS_P1;SDS_P2;PMS_P1;PMS_P2;Temp;Humidity;BMP_temperature;BMP_pressure;BME280_temperature;BME280_humidity;BME280_pressure;Samples;Min_cycle;Max_cycle;Signal;HPM_P1;HPM_P2
2022/01/23 00:00:17;;;;;;;60.17;35.90;;;;;;;;;;4980885;28;20236;-66
2022/01/23 00:02:46;;;;;;;58.60;35.50;;;;;;;;;;4970844;28;20244;-65
2022/01/23 00:05:12;;;;;;;54.47;35.90;;;;;;;;;;4956651;28;20260;-66
2022/01/23 00:07:39;;;;;;;52.33;35.27;;;;;;;;;;4967672;28;21301;-66
2022/01/23 00:10:06;;;;;;;59.30;36.03;;;;;;;;;;4957336;28;20328;-66
2022/01/23 00:12:38;;;;;;;55.50;35.90;;;;;;;;;;4954059;28;20217;-66
2022/01/23 00:17:48;;;;;;;58.17;36.37;;;;;;;;;;4979490;28;20229;-67
2022/01/23 00:20:14;;;;;;;57.53;36.03;;;;;;;;;;4975615;28;20252;-66
2022/01/23 00:22:44;;;;;;;55.07;36.87;;;;;;;;;;4977742;28;20275;-66
2022/01/23 00:30:42;;;;;;;57.97;36.83;;;;;;;;;;4975672;28;20695;-66
2022/01/23 00:33:08;;;;;;;56.17;36.03;;;;;;;;;;4976223;28;21194;-66
2022/01/23 00:35:35;;;;;;;55.50;35.87;;;;;;;;;;4963893;28;20842;-67
2022/01/23 00:38:01;;;;;;;58.33;36.70;;;;;;;;;;4960498;28;20629;-65
2022/01/23 00:40:28;;;;;;;58.63;37.00;;;;;;;;;;4975800;28;20835;-66
2022/01/23 00:42:55;;;;;;;57.00;36.37;;;;;;;;;;4964157;28;20222;-67
2022/01/23 00:47:56;;;;;;;58.73;36.83;;;;;;;;;;4967680;28;20987;-67
2022/01/23 00:50:22;;;;;;;54.83;34.97;;;;;;;;;;4983900;28;20248;-67
2022/01/23 00:52:48;;;;;;;57.13;36.87;;;;;;;;;;4977146;28;20226;-67
2022/01/23 00:55:14;;;;;;;59.90;36.97;;;;;;;;;;4975412;28;20277;-67
2022/01/23 00:57:40;;;;;;;55.47;36.33;;;;;;;;;;4974498;28;20212;-67
2022/01/23 01:00:06;;;;;;;57.20;38.57;;;;;;;;;;4970754;28;20485;-65
2022/01/23 01:02:32;;;;;;;56.77;36.50;;;;;;;;;;4960131;28;20225;-65
2022/01/23 01:04:58;;;;;;;58.37;37.07;;;;;;;;;;4972159;28;20473;-66
2022/01/23 01:07:24;;;;;;;60.20;38.83;;;;;;;;;;4970604;28;20236;-66
2022/01/23 01:09:53;;;;;;;54.43;36.70;;;;;;;;;;4973361;28;20256;-66
2022/01/23 01:12:31;;;;;;;59.27;37.83;;;;;;;;;;4978925;28;20718;-66
2022/01/23 01:34:04;;;;;;;57.70;37.47;;;;;;;;;;4977446;28;20287;-65
2022/01/23 01:36:51;;;;;;;56.43;35.90;;;;;;;;;;4958769;28;20817;-66
2022/01/23 01:39:19;;;;;;;61.67;38.37;;;;;;;;;;4974688;28;20185;-65
2022/01/23 01:41:45;;;;;;;58.80;36.87;;;;;;;;;;4946845;28;20225;-65
2022/01/23 01:44:11;;;;;;;60.47;37.43;;;;;;;;;;4976466;28;20249;-66
2022/01/23 01:46:37;;;;;;;58.67;37.37;;;;;;;;;;4976662;28;20231;-66
2022/01/23 01:49:03;;;;;;;58.63;37.33;;;;;;;;;;4978077;28;20226;-66
2022/01/23 01:51:32;;;;;;;58.80;36.90;;;;;;;;;;4969862;28;20701;-66
2022/01/23 01:54:05;;;;;;;57.77;37.73;;;;;;;;;;4981331;28;20198;-65
2022/01/23 01:56:38;;;;;;;56.67;36.33;;;;;;;;;;4982627;28;20813;-65
2022/01/23 02:09:38;;;;;;;65.63;38.17;;;;;;;;;;4957841;28;20620;-65
2022/01/23 02:12:51;;;;;;;63.70;37.63;;;;;;;;;;4974457;28;20799;-65
2022/01/23 02:50:36;;;;;;;61.67;38.27;;;;;;;;;;4981083;28;20252;-66
2022/01/23 02:50:50;;;;;;;60.43;37.23;;;;;;;;;;4978963;28;20252;-66
2022/01/23 02:53:36;;;;;;;62.03;37.53;;;;;;;;;;4975940;28;20217;-66
2022/01/23 02:56:03;;;;;;;59.67;37.83;;;;;;;;;;4971714;28;21558;-66
2022/01/23 02:58:36;;;;;;;57.70;36.73;;;;;;;;;;4962173;28;20317;-66
2022/01/23 03:01:15;;;;;;;60.73;36.20;;;;;;;;;;4969662;28;20224;-66
2022/01/23 03:03:45;;;;;;;64.83;37.93;;;;;;;;;;4979871;28;20711;-66
2022/01/23 03:14:22;;;;;;;60.90;37.67;;;;;;;;;;4949083;28;20672;-66
2022/01/23 03:30:36;;;;;;;59.30;36.93;;;;;;;;;;4978161;28;20348;-65
2022/01/23 03:33:02;;;;;;;61.87;36.90;;;;;;;;;;4977913;28;20193;-66
2022/01/23 03:35:28;;;;;;;60.27;37.23;;;;;;;;;;4970018;28;20225;-66
2022/01/23 03:37:54;;;;;;;60.57;37.17;;;;;;;;;;4984939;28;20662;-65
2022/01/23 03:40:20;;;;;;;65.10;37.87;;;;;;;;;;4984489;28;25789;-66
2022/01/23 03:42:49;;;;;;;57.80;35.63;;;;;;;;;;4986432;28;20222;-67
2022/01/23 03:50:48;;;;;;;58.57;36.53;;;;;;;;;;4960419;28;20767;-66
2022/01/23 03:53:14;;;;;;;57.63;35.73;;;;;;;;;;4978064;28;20217;-66
2022/01/23 03:55:40;;;;;;;58.23;36.27;;;;;;;;;;4977225;28;20261;-66
2022/01/23 03:58:06;;;;;;;56.63;35.53;;;;;;;;;;4964214;28;20217;-66
2022/01/23 04:00:32;;;;;;;62.63;37.33;;;;;;;;;;4975001;28;20395;-66
2022/01/23 04:02:58;;;;;;;58.33;37.33;;;;;;;;;;4982205;28;20217;-66
2022/01/23 04:05:24;;;;;;;56.70;36.03;;;;;;;;;;4974307;28;21490;-66
2022/01/23 04:07:50;;;;;;;59.97;37.10;;;;;;;;;;4977408;28;20214;-66
2022/01/23 04:10:19;;;;;;;58.27;36.83;;;;;;;;;;4970452;28;20296;-66
2022/01/23 04:12:52;;;;;;;60.53;36.53;;;;;;;;;;4975872;28;20578;-66
2022/01/23 04:15:29;;;;;;;56.57;35.03;;;;;;;;;;4973532;28;20202;-65
2022/01/23 04:20:47;;;;;;;59.80;36.97;;;;;;;;;;4971877;28;20233;-65
2022/01/23 04:31:53;;;;;;;56.30;35.50;;;;;;;;;;4964440;28;20276;-66
2022/01/23 04:34:36;;;;;;;60.17;36.73;;;;;;;;;;4967773;28;20229;-66
2022/01/23 04:45:28;;;;;;;59.70;35.57;;;;;;;;;;4977566;28;20237;-67
2022/01/23 05:06:41;;;;;;;58.73;36.13;;;;;;;;;;4976034;28;20232;-66
2022/01/23 05:09:08;;;;;;;55.47;35.47;;;;;;;;;;4977746;28;20196;-66
2022/01/23 05:11:35;;;;;;;56.50;34.40;;;;;;;;;;4978940;28;20803;-65
2022/01/23 05:14:02;;;;;;;60.33;35.20;;;;;;;;;;4970175;28;20786;-66
2022/01/23 05:16:28;;;;;;;57.00;34.10;;;;;;;;;;4956163;28;20217;-66
2022/01/23 05:18:54;;;;;;;53.73;34.13;;;;;;;;;;4977286;28;20241;-66
2022/01/23 05:23:46;;;;;;;55.73;34.00;;;;;;;;;;4972445;28;20206;-67
2022/01/23 05:26:12;;;;;;;55.47;34.87;;;;;;;;;;4971711;28;20248;-66
2022/01/23 05:28:38;;;;;;;49.53;32.37;;;;;;;;;;5007693;28;20283;-65
2022/01/23 05:31:04;;;;;;;57.47;35.00;;;;;;;;;;4978132;28;20356;-66
2022/01/23 05:33:30;;;;;;;54.40;34.93;;;;;;;;;;4976002;28;20260;-66
2022/01/23 05:35:56;;;;;;;54.30;34.23;;;;;;;;;;4978948;28;20291;-66
2022/01/23 05:38:22;;;;;;;52.47;34.53;;;;;;;;;;4970756;28;20355;-66
2022/01/23 05:40:56;;;;;;;54.43;34.67;;;;;;;;;;4980399;28;20349;-67
2022/01/23 05:43:22;;;;;;;51.60;33.83;;;;;;;;;;4976849;28;20304;-66
2022/01/23 05:45:47;;;;;;;55.00;33.33;;;;;;;;;;4953551;28;20247;-66
2022/01/23 05:48:13;;;;;;;53.63;33.53;;;;;;;;;;4956790;28;20431;-66
2022/01/23 05:50:39;;;;;;;55.07;34.73;;;;;;;;;;4975790;28;21867;-66
2022/01/23 05:53:05;;;;;;;55.30;34.70;;;;;;;;;;4975317;28;20222;-66
2022/01/23 05:55:31;;;;;;;53.80;33.33;;;;;;;;;;4979180;28;20721;-66
2022/01/23 05:57:57;;;;;;;54.40;34.30;;;;;;;;;;4975346;28;20597;-65
2022/01/23 06:00:23;;;;;;;51.37;32.57;;;;;;;;;;4972593;28;20679;-65
2022/01/23 06:02:49;;;;;;;54.27;33.20;;;;;;;;;;4974863;28;24286;-65
2022/01/23 06:05:15;;;;;;;53.53;34.23;;;;;;;;;;4974497;28;20329;-66
2022/01/23 06:07:42;;;;;;;54.63;33.53;;;;;;;;;;4955655;28;20221;-66
2022/01/23 06:10:15;;;;;;;50.40;31.63;;;;;;;;;;4977690;28;20616;-66
2022/01/23 06:12:42;;;;;;;52.97;32.63;;;;;;;;;;4974420;28;20217;-66
2022/01/23 06:15:08;;;;;;;51.00;32.13;;;;;;;;;;4974019;28;20611;-65
2022/01/23 06:17:34;;;;;;;49.27;31.70;;;;;;;;;;4982507;28;20190;-65
2022/01/23 06:20:01;;;;;;;54.80;34.37;;;;;;;;;;4985826;28;20582;-66
2022/01/23 06:22:27;;;;;;;52.83;32.73;;;;;;;;;;4981630;28;20217;-65
2022/01/23 06:24:53;;;;;;;51.43;32.23;;;;;;;;;;4978904;28;20214;-65
2022/01/23 06:27:19;;;;;;;51.67;32.20;;;;;;;;;;4973256;28;20256;-66
2022/01/23 06:29:45;;;;;;;51.83;32.63;;;;;;;;;;4973796;28;20221;-66
2022/01/23 06:32:11;;;;;;;54.57;32.33;;;;;;;;;;4970197;28;20299;-66
2022/01/23 06:34:37;;;;;;;54.30;33.13;;;;;;;;;;4967908;28;20248;-66
2022/01/23 06:37:03;;;;;;;54.23;33.93;;;;;;;;;;4973188;28;20214;-66
2022/01/23 06:39:29;;;;;;;49.53;32.10;;;;;;;;;;4970549;28;20222;-66
2022/01/23 06:41:55;;;;;;;53.53;32.33;;;;;;;;;;4979468;28;20210;-66
2022/01/23 06:44:22;;;;;;;52.53;33.13;;;;;;;;;;4971219;28;20701;-65
2022/01/23 06:46:48;;;;;;;51.57;32.30;;;;;;;;;;4975946;28;20232;-66
2022/01/23 06:49:14;;;;;;;49.63;32.33;;;;;;;;;;4976510;28;20217;-65
2022/01/23 06:51:42;;;;;;;52.90;34.17;;;;;;;;;;4977997;28;20649;-66
2022/01/23 06:54:08;;;;;;;51.63;31.97;;;;;;;;;;4968679;28;20193;-66
2022/01/23 06:56:34;;;;;;;51.33;32.03;;;;;;;;;;4971377;28;20914;-66
2022/01/23 06:59:00;;;;;;;52.13;32.20;;;;;;;;;;4986743;28;20233;-65
2022/01/23 07:01:26;;;;;;;49.37;31.90;;;;;;;;;;4987150;28;20286;-66
2022/01/23 07:03:52;;;;;;;51.40;32.70;;;;;;;;;;4982849;28;20253;-66
2022/01/23 07:06:18;;;;;;;52.73;32.37;;;;;;;;;;4981498;28;21204;-65
2022/01/23 07:08:44;;;;;;;50.30;31.20;;;;;;;;;;4979492;28;20255;-66
2022/01/23 07:11:09;;;;;;;51.43;31.43;;;;;;;;;;4974499;28;20248;-66
2022/01/23 07:13:35;;;;;;;52.30;32.50;;;;;;;;;;4974092;28;20213;-66
2022/01/23 07:16:06;;;;;;;53.57;31.90;;;;;;;;;;4969141;28;20241;-65
2022/01/23 07:18:32;;;;;;;48.67;31.70;;;;;;;;;;4973313;28;20226;-66
2022/01/23 07:20:58;;;;;;;51.07;31.87;;;;;;;;;;4957567;28;20280;-66
2022/01/23 07:23:24;;;;;;;49.67;30.73;;;;;;;;;;4955807;28;20887;-65
2022/01/23 07:25:50;;;;;;;51.70;31.83;;;;;;;;;;4973055;28;20225;-66
2022/01/23 07:28:19;;;;;;;57.70;32.57;;;;;;;;;;4973215;28;20225;-65
2022/01/23 07:30:55;;;;;;;49.90;32.87;;;;;;;;;;4975474;28;20531;-65
2022/01/23 07:33:21;;;;;;;48.90;31.93;;;;;;;;;;4968803;28;20271;-66
2022/01/23 07:35:47;;;;;;;49.07;30.23;;;;;;;;;;4968146;28;20226;-67
2022/01/23 07:38:16;;;;;;;51.07;32.47;;;;;;;;;;4969344;28;20250;-65
2022/01/23 07:40:43;;;;;;;48.47;30.50;;;;;;;;;;4971428;28;20229;-62
2022/01/23 07:43:09;;;;;;;42.20;27.57;;;;;;;;;;4969629;28;20813;-65
2022/01/23 07:45:35;;;;;;;42.73;25.87;;;;;;;;;;4972297;28;20835;-65
2022/01/23 07:48:01;;;;;;;42.17;27.87;;;;;;;;;;4962504;28;20196;-65
2022/01/23 07:50:27;;;;;;;48.37;29.57;;;;;;;;;;4972548;28;20621;-66
2022/01/23 07:52:53;;;;;;;47.97;28.53;;;;;;;;;;4973677;28;20707;-65
2022/01/23 07:55:19;;;;;;;49.50;29.33;;;;;;;;;;4976254;28;21381;-64
2022/01/23 07:57:45;;;;;;;50.30;29.00;;;;;;;;;;4975730;28;20683;-64
2022/01/23 08:00:12;;;;;;;47.67;29.07;;;;;;;;;;4962288;28;20729;-67
2022/01/23 08:02:38;;;;;;;45.43;27.20;;;;;;;;;;4952890;28;20802;-66
2022/01/23 08:05:04;;;;;;;47.73;28.17;;;;;;;;;;4966964;28;20311;-65
2022/01/23 08:07:31;;;;;;;48.97;29.20;;;;;;;;;;4944628;28;20257;-66
2022/01/23 08:10:00;;;;;;;46.80;28.70;;;;;;;;;;4966920;28;21239;-66
2022/01/23 08:12:26;;;;;;;49.73;28.63;;;;;;;;;;4962015;28;20278;-65
2022/01/23 08:14:52;;;;;;;47.47;29.43;;;;;;;;;;4963465;28;20628;-67
2022/01/23 08:17:19;;;;;;;47.90;30.43;;;;;;;;;;4941286;28;20236;-66
2022/01/23 08:19:45;;;;;;;52.90;29.50;;;;;;;;;;4967283;28;20221;-65
2022/01/23 08:22:11;;;;;;;45.37;29.10;;;;;;;;;;4952344;28;20694;-65
2022/01/23 08:24:37;;;;;;;43.90;28.97;;;;;;;;;;4967046;28;20232;-65
2022/01/23 08:27:03;;;;;;;51.10;29.77;;;;;;;;;;4957097;28;20872;-67
2022/01/23 08:29:29;;;;;;;46.13;29.47;;;;;;;;;;4964006;28;20194;-66
2022/01/23 08:31:55;;;;;;;50.37;30.17;;;;;;;;;;4961148;28;20229;-65
2022/01/23 08:34:21;;;;;;;45.13;28.73;;;;;;;;;;4958571;28;20229;-64
2022/01/23 08:36:47;;;;;;;47.00;29.73;;;;;;;;;;4949370;28;20864;-65
2022/01/23 08:39:15;;;;;;;48.33;29.63;;;;;;;;;;4962648;28;20226;-66
2022/01/23 08:41:50;;;;;;;44.80;29.83;;;;;;;;;;4954727;28;20197;-65
2022/01/23 08:44:19;;;;;;;43.20;27.70;;;;;;;;;;4960793;28;20905;-66
2022/01/23 08:46:45;;;;;;;50.93;30.10;;;;;;;;;;4941836;28;20205;-67
2022/01/23 08:49:11;;;;;;;45.97;29.10;;;;;;;;;;4942967;28;20822;-67
2022/01/23 08:51:37;;;;;;;49.27;29.67;;;;;;;;;;4962639;28;20296;-67
2022/01/23 08:54:04;;;;;;;47.00;28.90;;;;;;;;;;4964463;28;20189;-67
2022/01/23 08:56:30;;;;;;;47.90;29.70;;;;;;;;;;4942729;28;20320;-67
2022/01/23 08:58:56;;;;;;;45.87;30.73;;;;;;;;;;4975635;28;20558;-66
2022/01/23 09:01:23;;;;;;;48.70;31.27;;;;;;;;;;4969232;28;20225;-67
2022/01/23 09:03:49;;;;;;;51.63;30.53;;;;;;;;;;4964665;28;20206;-66
2022/01/23 09:06:15;;;;;;;50.17;31.07;;;;;;;;;;4969180;28;20264;-67
2022/01/23 09:08:41;;;;;;;48.60;30.63;;;;;;;;;;4959011;28;20402;-67
2022/01/23 09:11:10;;;;;;;49.97;31.53;;;;;;;;;;4959759;28;20228;-67
2022/01/23 09:13:53;;;;;;;47.93;31.27;;;;;;;;;;4975788;28;20239;-66
2022/01/23 09:16:19;;;;;;;48.07;30.83;;;;;;;;;;4957115;28;20236;-67
2022/01/23 09:18:45;;;;;;;46.97;30.63;;;;;;;;;;4952237;28;20202;-67
2022/01/23 09:21:11;;;;;;;45.13;30.47;;;;;;;;;;4952957;28;20244;-66
2022/01/23 09:23:37;;;;;;;49.70;32.63;;;;;;;;;;4980026;28;20197;-65
2022/01/23 09:26:14;;;;;;;54.07;33.63;;;;;;;;;;4957866;28;20836;-67
2022/01/23 09:28:40;;;;;;;46.87;31.17;;;;;;;;;;4969783;28;20203;-65
2022/01/23 09:31:07;;;;;;;48.53;31.77;;;;;;;;;;4972921;28;20205;-67
2022/01/23 09:33:33;;;;;;;49.63;31.00;;;;;;;;;;4947450;28;20201;-66
2022/01/23 09:35:59;;;;;;;47.33;31.70;;;;;;;;;;4971492;28;20200;-67
2022/01/23 09:38:25;;;;;;;50.80;32.23;;;;;;;;;;4969904;28;20197;-67
2022/01/23 09:40:51;;;;;;;47.93;32.70;;;;;;;;;;4976714;28;22435;-66
2022/01/23 09:43:18;;;;;;;48.63;32.03;;;;;;;;;;4966389;28;20201;-66
2022/01/23 09:45:51;;;;;;;47.53;31.07;;;;;;;;;;4972493;28;20201;-67
2022/01/23 09:48:17;;;;;;;49.63;31.23;;;;;;;;;;4952978;28;20268;-66
2022/01/23 09:50:44;;;;;;;50.97;32.30;;;;;;;;;;4968851;28;20225;-66
2022/01/23 09:53:09;;;;;;;50.67;31.33;;;;;;;;;;4967865;28;20907;-67
2022/01/23 09:55:35;;;;;;;48.43;30.00;;;;;;;;;;4969387;28;20356;-67
2022/01/23 09:58:01;;;;;;;47.53;32.00;;;;;;;;;;4967617;28;20185;-67
2022/01/23 10:00:28;;;;;;;48.57;31.73;;;;;;;;;;4968040;28;20204;-67
2022/01/23 10:02:54;;;;;;;52.10;31.47;;;;;;;;;;4966902;28;20228;-67
2022/01/23 10:05:20;;;;;;;47.37;31.33;;;;;;;;;;4964191;28;20209;-67
2022/01/23 10:07:46;;;;;;;48.40;31.77;;;;;;;;;;4948898;28;20713;-67
2022/01/23 10:10:18;;;;;;;49.60;31.37;;;;;;;;;;4978246;28;20840;-67
2022/01/23 10:12:46;;;;;;;47.40;30.13;;;;;;;;;;4983561;28;20210;-67
2022/01/23 10:15:12;;;;;;;45.90;30.33;;;;;;;;;;4964489;28;20205;-67
2022/01/23 10:17:38;;;;;;;46.67;31.23;;;;;;;;;;4966619;28;20197;-67
2022/01/23 10:20:05;;;;;;;50.00;32.13;;;;;;;;;;4964152;28;21889;-66
2022/01/23 10:22:32;;;;;;;49.67;32.27;;;;;;;;;;4978608;28;20205;-67
2022/01/23 10:25:17;;;;;;;52.00;33.17;;;;;;;;;;4987063;28;20631;-67
2022/01/23 10:27:53;;;;;;;50.33;32.77;;;;;;;;;;4984134;28;20530;-67
2022/01/23 10:30:20;;;;;;;49.70;32.37;;;;;;;;;;4983364;28;20278;-67
2022/01/23 10:33:06;;;;;;;50.70;30.97;;;;;;;;;;4980440;28;20198;-67
2022/01/23 10:35:32;;;;;;;49.27;31.63;;;;;;;;;;4980590;28;20207;-66
2022/01/23 10:38:04;;;;;;;50.90;33.73;;;;;;;;;;4966118;28;20193;-66
2022/01/23 10:40:33;;;;;;;43.50;30.63;;;;;;;;;;4977995;28;20197;-66
2022/01/23 10:48:37;;;;;;;43.47;30.17;;;;;;;;;;4978086;28;20232;-67
2022/01/23 10:51:14;;;;;;;44.63;29.50;;;;;;;;;;4976959;28;20248;-66
2022/01/23 10:53:59;;;;;;;47.97;30.77;;;;;;;;;;4958791;28;20219;-66
2022/01/23 10:56:25;;;;;;;44.33;31.17;;;;;;;;;;4963501;28;20495;-66
2022/01/23 10:59:01;;;;;;;45.13;31.00;;;;;;;;;;4964550;28;20498;-66
2022/01/23 11:01:30;;;;;;;48.57;31.47;;;;;;;;;;4980618;28;20320;-67
2022/01/23 11:04:09;;;;;;;48.33;31.40;;;;;;;;;;4972663;28;20219;-66
2022/01/23 11:06:54;;;;;;;45.03;30.77;;;;;;;;;;4971243;28;20241;-66
2022/01/23 11:09:20;;;;;;;45.70;30.87;;;;;;;;;;4974754;28;20986;-67
2022/01/23 11:11:49;;;;;;;45.03;30.97;;;;;;;;;;4963355;28;20221;-67
2022/01/23 11:19:47;;;;;;;48.57;32.60;;;;;;;;;;4979812;28;20209;-66
2022/01/23 11:22:16;;;;;;;46.67;30.77;;;;;;;;;;4969159;28;20213;-66
2022/01/23 11:24:45;;;;;;;39.93;29.80;;;;;;;;;;4972271;28;20205;-66
2022/01/23 11:27:11;;;;;;;49.53;32.13;;;;;;;;;;4977076;28;20194;-66
2022/01/23 11:29:36;;;;;;;45.00;30.17;;;;;;;;;;4964170;28;20233;-66
2022/01/23 11:32:03;;;;;;;45.93;30.07;;;;;;;;;;4969067;28;20286;-66
2022/01/23 11:34:29;;;;;;;45.30;30.20;;;;;;;;;;4959684;28;20193;-66
2022/01/23 11:36:56;;;;;;;44.80;30.10;;;;;;;;;;4953201;28;20667;-66
2022/01/23 11:39:37;;;;;;;46.20;29.67;;;;;;;;;;4955290;28;21065;-66
2022/01/23 11:54:02;;;;;;;41.03;28.00;;;;;;;;;;4971904;28;20194;-67
2022/01/23 11:55:57;;;;;;;41.33;29.07;;;;;;;;;;4965704;28;20204;-66
2022/01/23 11:58:41;;;;;;;41.53;29.20;;;;;;;;;;4971402;28;20190;-66
2022/01/23 12:01:19;;;;;;;44.70;29.93;;;;;;;;;;4976586;28;20302;-66
2022/01/23 12:04:04;;;;;;;42.90;28.93;;;;;;;;;;4970000;28;20616;-67
2022/01/23 12:06:30;;;;;;;41.37;29.40;;;;;;;;;;4976599;28;20272;-66
2022/01/23 12:09:18;;;;;;;42.67;29.50;;;;;;;;;;4974949;28;20201;-66
2022/01/23 12:12:02;;;;;;;44.83;29.67;;;;;;;;;;4979258;28;20301;-66
2022/01/23 12:17:19;;;;;;;41.50;28.37;;;;;;;;;;4945224;28;20209;-66
2022/01/23 12:19:49;;;;;;;43.80;29.40;;;;;;;;;;4979501;28;20201;-66
2022/01/23 12:22:29;;;;;;;43.83;28.10;;;;;;;;;;4956428;28;20213;-67
2022/01/23 12:24:56;;;;;;;39.70;27.97;;;;;;;;;;4978059;28;20280;-66
2022/01/23 12:27:24;;;;;;;41.03;29.17;;;;;;;;;;4977210;28;20216;-67
2022/01/23 12:29:51;;;;;;;40.70;27.43;;;;;;;;;;4966536;28;20224;-66
2022/01/23 12:32:26;;;;;;;44.47;28.97;;;;;;;;;;4989037;28;20213;-68
2022/01/23 12:34:56;;;;;;;42.93;28.73;;;;;;;;;;4987143;28;20885;-66
2022/01/23 12:37:22;;;;;;;42.23;28.00;;;;;;;;;;4985772;28;20201;-67
2022/01/23 12:40:07;;;;;;;42.83;27.67;;;;;;;;;;4983305;28;20726;-67
2022/01/23 12:42:52;;;;;;;40.57;27.53;;;;;;;;;;4980710;28;20201;-67
2022/01/23 12:45:36;;;;;;;42.27;27.93;;;;;;;;;;4977772;28;20197;-66
2022/01/23 12:48:21;;;;;;;40.80;26.70;;;;;;;;;;4979984;28;20190;-67
2022/01/23 12:50:47;;;;;;;40.67;26.87;;;;;;;;;;4975359;28;20301;-67
2022/01/23 12:53:13;;;;;;;41.03;27.77;;;;;;;;;;4979490;28;20189;-66
2022/01/23 12:55:47;;;;;;;42.10;28.37;;;;;;;;;;4983971;28;20224;-66
2022/01/23 12:58:14;;;;;;;41.10;27.97;;;;;;;;;;4972598;28;20202;-66
2022/01/23 13:00:40;;;;;;;41.50;27.27;;;;;;;;;;4983086;28;20215;-66
2022/01/23 13:03:06;;;;;;;40.47;26.93;;;;;;;;;;4984409;28;20193;-67
2022/01/23 13:05:32;;;;;;;41.13;27.70;;;;;;;;;;4965645;28;20362;-67
2022/01/23 13:08:10;;;;;;;42.20;27.87;;;;;;;;;;4982202;28;20194;-66
2022/01/23 13:10:57;;;;;;;40.80;27.60;;;;;;;;;;4974539;28;20205;-68
2022/01/23 13:13:49;;;;;;;42.17;26.63;;;;;;;;;;4976123;28;20293;-67
2022/01/23 13:16:48;;;;;;;42.33;28.17;;;;;;;;;;4979748;28;20194;-67
2022/01/23 13:30:04;;;;;;;41.20;27.33;;;;;;;;;;4981003;28;20209;-67
2022/01/23 13:34:59;;;;;;;40.10;26.30;;;;;;;;;;4972467;28;20676;-66
2022/01/23 13:37:26;;;;;;;41.20;26.90;;;;;;;;;;4973103;28;20190;-67
2022/01/23 13:39:57;;;;;;;42.60;27.23;;;;;;;;;;4972583;28;20201;-66
2022/01/23 13:42:43;;;;;;;40.80;27.20;;;;;;;;;;4976510;28;20482;-66
2022/01/23 13:53:36;;;;;;;40.20;26.13;;;;;;;;;;4979270;28;20564;-66
2022/01/23 13:59:32;;;;;;;39.90;26.27;;;;;;;;;;4976115;28;20217;-66
2022/01/23 14:04:26;;;;;;;38.13;25.73;;;;;;;;;;4946581;28;20220;-66
2022/01/23 14:06:51;;;;;;;36.47;25.57;;;;;;;;;;4955464;28;20820;-66
2022/01/23 14:09:18;;;;;;;36.10;25.20;;;;;;;;;;4957680;28;20194;-66
2022/01/23 14:11:46;;;;;;;40.07;24.60;;;;;;;;;;4976033;28;20245;-67
2022/01/23 14:14:13;;;;;;;39.73;25.90;;;;;;;;;;4973508;28;20200;-66
2022/01/23 14:16:39;;;;;;;38.73;24.37;;;;;;;;;;4975844;28;20620;-66
2022/01/23 14:19:19;;;;;;;34.90;24.30;;;;;;;;;;4962510;28;20476;-66
2022/01/23 14:21:46;;;;;;;37.83;26.10;;;;;;;;;;4945530;28;20300;-66
2022/01/23 14:24:12;;;;;;;34.90;24.87;;;;;;;;;;4977707;28;20201;-66
2022/01/23 14:26:38;;;;;;;37.37;25.40;;;;;;;;;;4961980;28;21288;-66
2022/01/23 14:29:05;;;;;;;38.93;24.97;;;;;;;;;;4982986;28;20205;-66
2022/01/23 14:31:39;;;;;;;38.67;25.13;;;;;;;;;;4984689;28;20221;-67
2022/01/23 14:34:07;;;;;;;39.37;25.07;;;;;;;;;;4982046;28;20189;-66
2022/01/23 14:36:35;;;;;;;36.57;25.93;;;;;;;;;;4966499;28;20197;-66
2022/01/23 14:39:00;;;;;;;38.50;26.30;;;;;;;;;;4979920;28;20754;-66
2022/01/23 14:41:31;;;;;;;34.77;24.50;;;;;;;;;;4971326;28;20203;-67
2022/01/23 14:43:57;;;;;;;38.37;25.73;;;;;;;;;;4949289;28;20739;-67
2022/01/23 14:46:23;;;;;;;40.17;25.40;;;;;;;;;;4967856;28;20205;-67
2022/01/23 14:48:50;;;;;;;37.73;24.70;;;;;;;;;;4971431;28;20202;-65
2022/01/23 14:51:20;;;;;;;35.83;25.37;;;;;;;;;;4972091;28;20249;-66
2022/01/23 14:53:46;;;;;;;38.07;24.67;;;;;;;;;;4981399;28;20182;-66
2022/01/23 14:56:13;;;;;;;37.97;25.90;;;;;;;;;;4989093;28;20236;-67
2022/01/23 14:58:39;;;;;;;40.13;24.97;;;;;;;;;;4968527;28;20206;-66
2022/01/23 15:01:08;;;;;;;36.67;25.70;;;;;;;;;;4964194;28;20662;-65
2022/01/23 15:03:34;;;;;;;34.53;24.87;;;;;;;;;;4964747;28;20186;-66
2022/01/23 15:06:00;;;;;;;37.90;25.10;;;;;;;;;;4976196;28;20238;-66
2022/01/23 15:08:27;;;;;;;38.97;25.93;;;;;;;;;;4973321;28;20189;-66
2022/01/23 15:10:54;;;;;;;37.50;24.80;;;;;;;;;;4970418;28;20244;-68
2022/01/23 15:13:21;;;;;;;47.57;25.47;;;;;;;;;;4966972;28;20959;-66
2022/01/23 15:15:47;;;;;;;35.93;24.73;;;;;;;;;;4964538;28;20303;-66
2022/01/23 15:18:13;;;;;;;37.93;25.00;;;;;;;;;;4970862;28;20466;-66
2022/01/23 15:20:39;;;;;;;37.53;25.37;;;;;;;;;;4969616;28;20218;-67
2022/01/23 15:23:05;;;;;;;41.10;25.83;;;;;;;;;;4973179;28;20385;-66
2022/01/23 15:25:31;;;;;;;38.93;25.67;;;;;;;;;;4966541;28;20269;-66
2022/01/23 15:27:57;;;;;;;40.10;25.87;;;;;;;;;;4967236;28;20650;-67
2022/01/23 15:30:24;;;;;;;41.87;26.40;;;;;;;;;;4974055;28;20198;-67
2022/01/23 15:32:51;;;;;;;39.77;26.83;;;;;;;;;;4971831;28;20217;-66
2022/01/23 15:35:17;;;;;;;40.17;26.70;;;;;;;;;;4957851;28;20201;-66
2022/01/23 15:37:43;;;;;;;33.93;25.00;;;;;;;;;;4958437;28;20201;-67
2022/01/23 15:40:12;;;;;;;41.47;27.40;;;;;;;;;;4948975;28;20376;-65
2022/01/23 15:42:39;;;;;;;37.50;25.63;;;;;;;;;;4965396;28;20193;-66
2022/01/23 15:45:05;;;;;;;40.80;26.73;;;;;;;;;;4965952;28;20982;-66
2022/01/23 15:47:31;;;;;;;40.23;26.40;;;;;;;;;;4973650;28;20203;-66
2022/01/23 15:49:57;;;;;;;39.90;26.07;;;;;;;;;;4958036;28;20200;-67
2022/01/23 15:52:23;;;;;;;35.47;25.43;;;;;;;;;;4972050;28;20247;-67
2022/01/23 15:54:49;;;;;;;40.60;26.67;;;;;;;;;;4964609;28;22146;-66
2022/01/23 15:57:15;;;;;;;37.10;25.43;;;;;;;;;;4963663;28;20198;-66
2022/01/23 15:59:41;;;;;;;38.90;26.23;;;;;;;;;;4967499;28;21894;-66
2022/01/23 16:02:09;;;;;;;40.80;25.43;;;;;;;;;;4971664;28;26256;-66
2022/01/23 16:04:39;;;;;;;37.67;25.23;;;;;;;;;;4976344;28;20218;-65
2022/01/23 16:07:05;;;;;;;37.03;25.77;;;;;;;;;;4959953;28;20252;-65
2022/01/23 16:09:31;;;;;;;39.30;26.67;;;;;;;;;;4969670;28;20206;-65
2022/01/23 16:11:57;;;;;;;39.53;26.47;;;;;;;;;;4970461;28;20308;-65
2022/01/23 16:14:23;;;;;;;37.80;26.93;;;;;;;;;;4971760;28;20206;-66
2022/01/23 16:16:49;;;;;;;37.83;26.40;;;;;;;;;;4966256;28;20916;-65
2022/01/23 16:19:16;;;;;;;39.00;25.37;;;;;;;;;;4959536;28;20673;-66
2022/01/23 16:21:44;;;;;;;39.67;25.40;;;;;;;;;;4970345;28;20830;-66
2022/01/23 16:24:10;;;;;;;37.40;25.43;;;;;;;;;;4953068;28;20283;-65
2022/01/23 16:26:36;;;;;;;37.30;26.23;;;;;;;;;;4962343;28;20201;-65
2022/01/23 16:29:02;;;;;;;37.10;25.13;;;;;;;;;;4956514;28;20209;-65
2022/01/23 16:31:27;;;;;;;40.50;25.47;;;;;;;;;;4956634;28;20545;-65
2022/01/23 16:33:53;;;;;;;41.97;26.20;;;;;;;;;;4973215;28;20194;-65
2022/01/23 16:36:21;;;;;;;38.17;25.70;;;;;;;;;;4977220;28;20591;-65
2022/01/23 16:38:47;;;;;;;35.80;25.37;;;;;;;;;;4973746;28;20190;-65
2022/01/23 16:41:12;;;;;;;40.50;26.83;;;;;;;;;;4957048;28;20186;-66
2022/01/23 16:43:39;;;;;;;37.60;26.73;;;;;;;;;;4972048;28;20201;-65
2022/01/23 16:46:05;;;;;;;37.57;26.03;;;;;;;;;;4970015;28;20612;-65
2022/01/23 16:48:31;;;;;;;39.07;26.00;;;;;;;;;;4976482;28;20645;-65
2022/01/23 16:50:57;;;;;;;38.27;25.20;;;;;;;;;;4971498;28;20229;-65
2022/01/23 16:53:23;;;;;;;36.20;25.77;;;;;;;;;;4979761;28;20271;-65
2022/01/23 16:55:56;;;;;;;41.27;25.53;;;;;;;;;;4976211;28;20201;-65
2022/01/23 16:58:22;;;;;;;39.57;26.17;;;;;;;;;;4974009;28;20209;-65
2022/01/23 17:00:48;;;;;;;43.87;27.23;;;;;;;;;;4975315;28;20225;-65
2022/01/23 17:03:14;;;;;;;43.03;25.80;;;;;;;;;;4970497;28;20209;-66
2022/01/23 17:05:42;;;;;;;41.27;26.67;;;;;;;;;;4960765;28;20237;-64
2022/01/23 17:08:08;;;;;;;38.73;26.40;;;;;;;;;;4968494;28;20428;-65
2022/01/23 17:10:34;;;;;;;37.63;25.63;;;;;;;;;;4961218;28;20312;-64
2022/01/23 17:13:00;;;;;;;38.30;26.67;;;;;;;;;;4962046;28;20228;-65
2022/01/23 17:15:26;;;;;;;40.90;25.57;;;;;;;;;;4965717;28;20193;-65
2022/01/23 17:17:52;;;;;;;38.40;25.80;;;;;;;;;;4963546;28;20269;-64
2022/01/23 17:20:20;;;;;;;57.87;30.97;;;;;;;;;;4964081;28;20217;-66
2022/01/23 17:22:46;;;;;;;95.03;47.10;;;;;;;;;;4967648;28;20838;-65
2022/01/23 17:25:12;;;;;;;64.67;35.23;;;;;;;;;;4948137;28;20231;-65
2022/01/23 17:27:38;;;;;;;66.70;36.60;;;;;;;;;;4972550;28;20201;-65
2022/01/23 17:30:04;;;;;;;68.67;34.77;;;;;;;;;;4953975;28;20303;-65
2022/01/23 17:32:30;;;;;;;62.00;34.23;;;;;;;;;;4979309;28;20456;-66
2022/01/23 17:34:56;;;;;;;61.47;33.33;;;;;;;;;;4980183;28;20672;-64
2022/01/23 17:37:22;;;;;;;81.73;38.80;;;;;;;;;;4962657;28;20194;-66